sensor_id;sensor_type;location;lat;lon;timestamp;P1;durP1;ratioP1;P2;durP2;ratioP2
64938;SDS011;51453;47.738;7.420;2022-11-20T00:03:32;6.28;;;4.05;;
64938;SDS011;51453;47.738;7.420;2022-11-20T00:05:59;5.53;;;3.78;;
64938;SDS011;51453;47.738;7.420;2022-11-20T00:08:32;11.55;;;4.45;;
64938;SDS011;51453;47.738;7.420;2022-11-20T00:11:06;6.22;;;4.15;;
64938;SDS011;51453;47.738;7.420;2022-11-20T00:13:33;5.32;;;3.78;;
64938;SDS011;51453;47.738;7.420;2022-11-20T00:15:59;7.35;;;4.40;;
64938;SDS011;51453;47.738;7.420;2022-11-20T00:18:27;10.13;;;3.97;;
64938;SDS011;51453;47.738;7.420;2022-11-20T00:20:53;9.15;;;4.60;;
64938;SDS011;51453;47.738;7.420;2022-11-20T00:23:19;6.65;;;4.22;;
64938;SDS011;51453;47.738;7.420;2022-11-20T00:25:45;6.85;;;4.18;;
64938;SDS011;51453;47.738;7.420;2022-11-20T00:28:10;7.65;;;3.92;;
64938;SDS011;51453;47.738;7.420;2022-11-20T00:30:36;7.47;;;4.22;;
64938;SDS011;51453;47.738;7.420;2022-11-20T00:33:02;7.88;;;4.53;;
64938;SDS011;51453;47.738;7.420;2022-11-20T00:35:27;5.72;;;3.97;;
64938;SDS011;51453;47.738;7.420;2022-11-20T00:37:53;9.45;;;4.40;;
64938;SDS011;51453;47.738;7.420;2022-11-20T00:40:19;6.50;;;4.03;;
64938;SDS011;51453;47.738;7.420;2022-11-20T00:42:44;7.93;;;4.32;;
64938;SDS011;51453;47.738;7.420;2022-11-20T00:45:10;9.95;;;4.40;;
64938;SDS011;51453;47.738;7.420;2022-11-20T00:47:35;7.05;;;4.32;;
64938;SDS011;51453;47.738;7.420;2022-11-20T00:50:01;8.27;;;4.60;;
64938;SDS011;51453;47.738;7.420;2022-11-20T00:52:27;6.50;;;4.60;;
64938;SDS011;51453;47.738;7.420;2022-11-20T00:54:53;6.32;;;4.40;;
64938;SDS011;51453;47.738;7.420;2022-11-20T00:57:18;10.25;;;4.45;;
64938;SDS011;51453;47.738;7.420;2022-11-20T00:59:44;7.95;;;4.90;;
64938;SDS011;51453;47.738;7.420;2022-11-20T01:02:09;5.35;;;3.97;;
64938;SDS011;51453;47.738;7.420;2022-11-20T01:04:35;7.30;;;4.72;;
64938;SDS011;51453;47.738;7.420;2022-11-20T01:07:01;8.18;;;4.18;;
64938;SDS011;51453;47.738;7.420;2022-11-20T01:09:26;7.72;;;3.92;;
64938;SDS011;51453;47.738;7.420;2022-11-20T01:11:52;7.20;;;4.47;;
64938;SDS011;51453;47.738;7.420;2022-11-20T01:14:18;10.23;;;4.40;;
64938;SDS011;51453;47.738;7.420;2022-11-20T01:16:46;8.52;;;4.10;;
64938;SDS011;51453;47.738;7.420;2022-11-20T01:19:14;8.32;;;4.40;;
64938;SDS011;51453;47.738;7.420;2022-11-20T01:21:42;8.13;;;4.10;;
64938;SDS011;51453;47.738;7.420;2022-11-20T01:24:14;10.60;;;4.90;;
64938;SDS011;51453;47.738;7.420;2022-11-20T01:26:41;9.20;;;4.68;;
64938;SDS011;51453;47.738;7.420;2022-11-20T01:29:19;9.20;;;4.82;;
64938;SDS011;51453;47.738;7.420;2022-11-20T01:31:49;8.70;;;4.90;;
64938;SDS011;51453;47.738;7.420;2022-11-20T01:34:17;8.20;;;4.20;;
64938;SDS011;51453;47.738;7.420;2022-11-20T01:36:44;9.13;;;4.72;;
64938;SDS011;51453;47.738;7.420;2022-11-20T01:39:13;10.38;;;4.90;;
64938;SDS011;51453;47.738;7.420;2022-11-20T01:41:45;8.27;;;4.45;;
64938;SDS011;51453;47.738;7.420;2022-11-20T01:50:02;10.90;;;5.28;;
64938;SDS011;51453;47.738;7.420;2022-11-20T01:52:54;8.70;;;5.07;;
64938;SDS011;51453;47.738;7.420;2022-11-20T01:55:28;9.65;;;5.10;;
64938;SDS011;51453;47.738;7.420;2022-11-20T01:57:57;6.95;;;4.72;;
64938;SDS011;51453;47.738;7.420;2022-11-20T02:00:23;7.10;;;4.72;;
64938;SDS011;51453;47.738;7.420;2022-11-20T02:02:51;7.47;;;5.20;;
64938;SDS011;51453;47.738;7.420;2022-11-20T02:07:59;10.73;;;5.55;;
64938;SDS011;51453;47.738;7.420;2022-11-20T02:10:27;11.45;;;5.40;;
64938;SDS011;51453;47.738;7.420;2022-11-20T02:12:54;8.68;;;5.78;;
64938;SDS011;51453;47.738;7.420;2022-11-20T02:15:38;12.30;;;6.30;;
64938;SDS011;51453;47.738;7.420;2022-11-20T02:18:05;12.60;;;6.60;;
64938;SDS011;51453;47.738;7.420;2022-11-20T02:20:31;9.75;;;6.45;;
64938;SDS011;51453;47.738;7.420;2022-11-20T02:22:59;9.18;;;6.30;;
64938;SDS011;51453;47.738;7.420;2022-11-20T02:25:37;11.85;;;6.28;;
64938;SDS011;51453;47.738;7.420;2022-11-20T02:28:05;12.18;;;6.05;;
64938;SDS011;51453;47.738;7.420;2022-11-20T02:30:31;12.48;;;7.05;;
64938;SDS011;51453;47.738;7.420;2022-11-20T02:32:57;10.13;;;6.97;;
64938;SDS011;51453;47.738;7.420;2022-11-20T02:37:49;13.00;;;6.65;;
64938;SDS011;51453;47.738;7.420;2022-11-20T02:40:18;10.52;;;6.75;;
64938;SDS011;51453;47.738;7.420;2022-11-20T02:42:44;8.90;;;6.32;;
64938;SDS011;51453;47.738;7.420;2022-11-20T02:45:09;10.95;;;7.00;;
64938;SDS011;51453;47.738;7.420;2022-11-20T02:47:35;15.65;;;9.35;;
64938;SDS011;51453;47.738;7.420;2022-11-20T02:50:01;18.38;;;10.05;;
64938;SDS011;51453;47.738;7.420;2022-11-20T02:52:27;13.98;;;8.82;;
64938;SDS011;51453;47.738;7.420;2022-11-20T02:54:53;11.88;;;7.80;;
64938;SDS011;51453;47.738;7.420;2022-11-20T02:57:19;12.77;;;7.68;;
64938;SDS011;51453;47.738;7.420;2022-11-20T02:59:45;14.75;;;7.85;;
64938;SDS011;51453;47.738;7.420;2022-11-20T03:02:10;12.25;;;8.10;;
64938;SDS011;51453;47.738;7.420;2022-11-20T03:04:36;12.07;;;7.40;;
64938;SDS011;51453;47.738;7.420;2022-11-20T03:07:02;12.00;;;6.72;;
64938;SDS011;51453;47.738;7.420;2022-11-20T03:09:28;10.93;;;6.88;;
64938;SDS011;51453;47.738;7.420;2022-11-20T03:11:53;19.25;;;8.82;;
64938;SDS011;51453;47.738;7.420;2022-11-20T03:14:19;14.20;;;8.20;;
64938;SDS011;51453;47.738;7.420;2022-11-20T03:16:45;13.50;;;7.82;;
64938;SDS011;51453;47.738;7.420;2022-11-20T03:19:11;12.75;;;7.10;;
64938;SDS011;51453;47.738;7.420;2022-11-20T03:21:37;13.90;;;8.40;;
64938;SDS011;51453;47.738;7.420;2022-11-20T03:24:03;14.15;;;7.55;;
64938;SDS011;51453;47.738;7.420;2022-11-20T03:26:28;10.27;;;6.70;;
64938;SDS011;51453;47.738;7.420;2022-11-20T03:28:55;10.93;;;7.85;;
64938;SDS011;51453;47.738;7.420;2022-11-20T03:31:24;14.93;;;7.22;;
64938;SDS011;51453;47.738;7.420;2022-11-20T03:33:55;10.95;;;7.18;;
64938;SDS011;51453;47.738;7.420;2022-11-20T03:36:22;9.68;;;6.63;;
64938;SDS011;51453;47.738;7.420;2022-11-20T03:38:48;11.02;;;7.32;;
64938;SDS011;51453;47.738;7.420;2022-11-20T03:41:18;10.50;;;6.60;;
64938;SDS011;51453;47.738;7.420;2022-11-20T03:43:51;10.45;;;6.30;;
64938;SDS011;51453;47.738;7.420;2022-11-20T03:46:24;11.07;;;5.88;;
64938;SDS011;51453;47.738;7.420;2022-11-20T03:48:51;7.22;;;5.50;;
64938;SDS011;51453;47.738;7.420;2022-11-20T03:51:21;8.75;;;5.57;;
64938;SDS011;51453;47.738;7.420;2022-11-20T03:53:49;8.93;;;5.45;;
64938;SDS011;51453;47.738;7.420;2022-11-20T03:56:17;8.00;;;5.47;;
64938;SDS011;51453;47.738;7.420;2022-11-20T03:58:45;8.95;;;5.55;;
64938;SDS011;51453;47.738;7.420;2022-11-20T04:01:15;13.25;;;6.45;;
64938;SDS011;51453;47.738;7.420;2022-11-20T04:03:43;8.32;;;5.57;;
64938;SDS011;51453;47.738;7.420;2022-11-20T04:06:11;9.13;;;5.80;;
64938;SDS011;51453;47.738;7.420;2022-11-20T04:08:44;7.82;;;5.57;;
64938;SDS011;51453;47.738;7.420;2022-11-20T04:11:20;12.18;;;5.85;;
64938;SDS011;51453;47.738;7.420;2022-11-20T04:13:48;7.95;;;5.68;;
64938;SDS011;51453;47.738;7.420;2022-11-20T04:16:16;7.35;;;5.22;;
64938;SDS011;51453;47.738;7.420;2022-11-20T04:18:42;7.63;;;4.88;;
64938;SDS011;51453;47.738;7.420;2022-11-20T04:21:08;6.22;;;4.43;;
64938;SDS011;51453;47.738;7.420;2022-11-20T04:23:34;7.97;;;5.13;;
64938;SDS011;51453;47.738;7.420;2022-11-20T04:26:00;8.13;;;4.50;;
64938;SDS011;51453;47.738;7.420;2022-11-20T04:28:27;9.00;;;4.60;;
64938;SDS011;51453;47.738;7.420;2022-11-20T04:30:53;5.85;;;3.90;;
64938;SDS011;51453;47.738;7.420;2022-11-20T04:33:18;6.80;;;4.35;;
64938;SDS011;51453;47.738;7.420;2022-11-20T04:35:44;6.22;;;3.92;;
64938;SDS011;51453;47.738;7.420;2022-11-20T04:38:12;6.18;;;3.80;;
64938;SDS011;51453;47.738;7.420;2022-11-20T04:40:38;6.22;;;4.00;;
64938;SDS011;51453;47.738;7.420;2022-11-20T04:43:04;5.40;;;4.05;;
64938;SDS011;51453;47.738;7.420;2022-11-20T04:45:29;7.90;;;4.38;;
64938;SDS011;51453;47.738;7.420;2022-11-20T04:47:55;7.05;;;4.50;;
64938;SDS011;51453;47.738;7.420;2022-11-20T04:50:20;10.18;;;4.43;;
64938;SDS011;51453;47.738;7.420;2022-11-20T04:52:46;5.53;;;3.90;;
64938;SDS011;51453;47.738;7.420;2022-11-20T04:55:12;6.60;;;4.45;;
64938;SDS011;51453;47.738;7.420;2022-11-20T04:57:38;8.70;;;4.78;;
64938;SDS011;51453;47.738;7.420;2022-11-20T05:00:04;4.60;;;4.07;;
64938;SDS011;51453;47.738;7.420;2022-11-20T05:02:30;8.40;;;4.38;;
64938;SDS011;51453;47.738;7.420;2022-11-20T05:04:57;5.80;;;4.30;;
64938;SDS011;51453;47.738;7.420;2022-11-20T05:07:22;5.70;;;4.00;;
64938;SDS011;51453;47.738;7.420;2022-11-20T05:09:48;6.70;;;3.97;;
64938;SDS011;51453;47.738;7.420;2022-11-20T05:12:14;4.65;;;3.80;;
64938;SDS011;51453;47.738;7.420;2022-11-20T05:14:39;4.30;;;3.90;;
64938;SDS011;51453;47.738;7.420;2022-11-20T05:17:05;8.35;;;5.05;;
64938;SDS011;51453;47.738;7.420;2022-11-20T05:19:30;18.02;;;9.52;;
64938;SDS011;51453;47.738;7.420;2022-11-20T05:21:56;18.17;;;10.02;;
64938;SDS011;51453;47.738;7.420;2022-11-20T05:24:22;28.70;;;14.70;;
64938;SDS011;51453;47.738;7.420;2022-11-20T05:26:47;25.17;;;13.55;;
64938;SDS011;51453;47.738;7.420;2022-11-20T05:29:13;7.40;;;5.57;;
64938;SDS011;51453;47.738;7.420;2022-11-20T05:31:42;5.38;;;3.67;;
64938;SDS011;51453;47.738;7.420;2022-11-20T05:34:07;3.22;;;2.80;;
64938;SDS011;51453;47.738;7.420;2022-11-20T05:36:36;5.70;;;4.20;;
64938;SDS011;51453;47.738;7.420;2022-11-20T05:39:01;4.80;;;4.03;;
64938;SDS011;51453;47.738;7.420;2022-11-20T05:41:27;4.85;;;4.00;;
64938;SDS011;51453;47.738;7.420;2022-11-20T05:43:53;4.47;;;3.75;;
64938;SDS011;51453;47.738;7.420;2022-11-20T05:46:20;5.30;;;4.38;;
64938;SDS011;51453;47.738;7.420;2022-11-20T05:48:46;5.68;;;4.60;;
64938;SDS011;51453;47.738;7.420;2022-11-20T05:51:13;5.13;;;3.50;;
64938;SDS011;51453;47.738;7.420;2022-11-20T05:53:41;5.10;;;3.22;;
64938;SDS011;51453;47.738;7.420;2022-11-20T05:56:09;3.97;;;3.40;;
64938;SDS011;51453;47.738;7.420;2022-11-20T05:58:37;4.53;;;3.72;;
64938;SDS011;51453;47.738;7.420;2022-11-20T06:01:10;4.07;;;2.90;;
64938;SDS011;51453;47.738;7.420;2022-11-20T06:03:45;7.13;;;4.68;;
64938;SDS011;51453;47.738;7.420;2022-11-20T06:06:12;7.47;;;5.18;;
64938;SDS011;51453;47.738;7.420;2022-11-20T06:08:39;4.50;;;3.90;;
64938;SDS011;51453;47.738;7.420;2022-11-20T06:11:06;3.20;;;2.85;;
64938;SDS011;51453;47.738;7.420;2022-11-20T06:13:34;5.97;;;3.50;;
64938;SDS011;51453;47.738;7.420;2022-11-20T06:16:00;6.22;;;4.10;;
64938;SDS011;51453;47.738;7.420;2022-11-20T06:18:26;4.70;;;3.50;;
64938;SDS011;51453;47.738;7.420;2022-11-20T06:21:10;6.57;;;4.53;;
64938;SDS011;51453;47.738;7.420;2022-11-20T06:23:40;6.20;;;4.57;;
64938;SDS011;51453;47.738;7.420;2022-11-20T06:26:07;4.53;;;3.55;;
64938;SDS011;51453;47.738;7.420;2022-11-20T06:28:34;4.40;;;2.58;;
64938;SDS011;51453;47.738;7.420;2022-11-20T06:31:00;4.78;;;3.42;;
64938;SDS011;51453;47.738;7.420;2022-11-20T06:33:26;3.90;;;2.95;;
64938;SDS011;51453;47.738;7.420;2022-11-20T06:35:52;4.10;;;3.22;;
64938;SDS011;51453;47.738;7.420;2022-11-20T06:38:20;4.50;;;2.97;;
64938;SDS011;51453;47.738;7.420;2022-11-20T06:40:46;4.28;;;2.60;;
64938;SDS011;51453;47.738;7.420;2022-11-20T06:43:11;4.72;;;2.90;;
64938;SDS011;51453;47.738;7.420;2022-11-20T06:45:37;2.97;;;2.70;;
64938;SDS011;51453;47.738;7.420;2022-11-20T06:48:03;4.55;;;2.70;;
64938;SDS011;51453;47.738;7.420;2022-11-20T06:50:29;3.55;;;2.60;;
64938;SDS011;51453;47.738;7.420;2022-11-20T06:52:54;4.25;;;2.60;;
64938;SDS011;51453;47.738;7.420;2022-11-20T06:55:20;3.42;;;3.13;;
64938;SDS011;51453;47.738;7.420;2022-11-20T06:57:46;5.00;;;4.00;;
64938;SDS011;51453;47.738;7.420;2022-11-20T07:00:12;5.18;;;3.50;;
64938;SDS011;51453;47.738;7.420;2022-11-20T07:02:38;4.97;;;3.60;;
64938;SDS011;51453;47.738;7.420;2022-11-20T07:05:04;4.32;;;3.20;;
64938;SDS011;51453;47.738;7.420;2022-11-20T07:07:30;3.75;;;2.65;;
64938;SDS011;51453;47.738;7.420;2022-11-20T07:09:55;4.40;;;2.75;;
64938;SDS011;51453;47.738;7.420;2022-11-20T07:12:21;5.43;;;2.67;;
64938;SDS011;51453;47.738;7.420;2022-11-20T07:14:46;4.20;;;2.38;;
64938;SDS011;51453;47.738;7.420;2022-11-20T07:17:12;3.80;;;2.40;;
64938;SDS011;51453;47.738;7.420;2022-11-20T07:19:38;3.90;;;2.22;;
64938;SDS011;51453;47.738;7.420;2022-11-20T07:22:03;2.65;;;2.45;;
64938;SDS011;51453;47.738;7.420;2022-11-20T07:24:29;4.70;;;2.55;;
64938;SDS011;51453;47.738;7.420;2022-11-20T07:26:55;3.92;;;2.90;;
64938;SDS011;51453;47.738;7.420;2022-11-20T07:29:20;3.35;;;2.35;;
64938;SDS011;51453;47.738;7.420;2022-11-20T07:31:46;4.07;;;2.53;;
64938;SDS011;51453;47.738;7.420;2022-11-20T07:34:11;3.95;;;2.20;;
64938;SDS011;51453;47.738;7.420;2022-11-20T07:36:37;5.03;;;2.28;;
64938;SDS011;51453;47.738;7.420;2022-11-20T07:39:03;3.20;;;1.90;;
64938;SDS011;51453;47.738;7.420;2022-11-20T07:41:29;4.43;;;2.72;;
64938;SDS011;51453;47.738;7.420;2022-11-20T07:43:54;3.97;;;2.42;;
64938;SDS011;51453;47.738;7.420;2022-11-20T07:46:20;3.90;;;2.45;;
64938;SDS011;51453;47.738;7.420;2022-11-20T07:48:46;4.05;;;2.75;;
64938;SDS011;51453;47.738;7.420;2022-11-20T07:51:11;5.25;;;2.58;;
64938;SDS011;51453;47.738;7.420;2022-11-20T07:53:38;5.43;;;2.90;;
64938;SDS011;51453;47.738;7.420;2022-11-20T07:56:04;4.68;;;2.63;;
64938;SDS011;51453;47.738;7.420;2022-11-20T07:58:30;3.00;;;2.40;;
64938;SDS011;51453;47.738;7.420;2022-11-20T08:00:57;4.30;;;3.00;;
64938;SDS011;51453;47.738;7.420;2022-11-20T08:03:27;5.45;;;2.20;;
64938;SDS011;51453;47.738;7.420;2022-11-20T08:05:52;5.93;;;3.30;;
64938;SDS011;51453;47.738;7.420;2022-11-20T08:08:18;7.05;;;4.60;;
64938;SDS011;51453;47.738;7.420;2022-11-20T08:10:44;6.07;;;3.30;;
64938;SDS011;51453;47.738;7.420;2022-11-20T08:13:09;6.82;;;2.92;;
64938;SDS011;51453;47.738;7.420;2022-11-20T08:15:54;6.03;;;2.38;;
64938;SDS011;51453;47.738;7.420;2022-11-20T08:18:19;3.50;;;2.25;;
64938;SDS011;51453;47.738;7.420;2022-11-20T08:20:45;3.47;;;2.08;;
64938;SDS011;51453;47.738;7.420;2022-11-20T08:23:10;3.28;;;2.60;;
64938;SDS011;51453;47.738;7.420;2022-11-20T08:25:37;2.35;;;1.92;;
64938;SDS011;51453;47.738;7.420;2022-11-20T08:28:06;3.10;;;1.73;;
64938;SDS011;51453;47.738;7.420;2022-11-20T08:30:34;2.92;;;1.85;;
64938;SDS011;51453;47.738;7.420;2022-11-20T08:33:01;3.90;;;2.17;;
64938;SDS011;51453;47.738;7.420;2022-11-20T08:38:00;3.38;;;1.95;;
64938;SDS011;51453;47.738;7.420;2022-11-20T08:40:26;3.72;;;1.90;;
64938;SDS011;51453;47.738;7.420;2022-11-20T08:42:52;4.40;;;2.10;;
64938;SDS011;51453;47.738;7.420;2022-11-20T08:45:18;2.65;;;1.70;;
64938;SDS011;51453;47.738;7.420;2022-11-20T08:47:44;3.60;;;2.08;;
64938;SDS011;51453;47.738;7.420;2022-11-20T08:50:11;5.28;;;2.58;;
64938;SDS011;51453;47.738;7.420;2022-11-20T08:52:39;6.22;;;2.30;;
64938;SDS011;51453;47.738;7.420;2022-11-20T08:55:05;5.40;;;1.80;;
64938;SDS011;51453;47.738;7.420;2022-11-20T08:57:35;3.22;;;1.70;;
64938;SDS011;51453;47.738;7.420;2022-11-20T09:00:03;1.83;;;1.65;;
64938;SDS011;51453;47.738;7.420;2022-11-20T09:02:30;3.30;;;1.90;;
64938;SDS011;51453;47.738;7.420;2022-11-20T09:04:57;4.90;;;2.08;;
64938;SDS011;51453;47.738;7.420;2022-11-20T09:07:23;5.32;;;2.35;;
64938;SDS011;51453;47.738;7.420;2022-11-20T09:09:49;4.65;;;2.10;;
64938;SDS011;51453;47.738;7.420;2022-11-20T09:12:14;4.03;;;2.33;;
64938;SDS011;51453;47.738;7.420;2022-11-20T09:14:40;4.05;;;2.20;;
64938;SDS011;51453;47.738;7.420;2022-11-20T09:17:06;4.97;;;2.78;;
64938;SDS011;51453;47.738;7.420;2022-11-20T09:19:32;5.60;;;2.42;;
64938;SDS011;51453;47.738;7.420;2022-11-20T09:21:58;5.43;;;3.13;;
64938;SDS011;51453;47.738;7.420;2022-11-20T09:24:25;9.75;;;3.15;;
64938;SDS011;51453;47.738;7.420;2022-11-20T09:26:51;6.97;;;3.20;;
64938;SDS011;51453;47.738;7.420;2022-11-20T09:29:17;6.18;;;3.20;;
64938;SDS011;51453;47.738;7.420;2022-11-20T09:31:43;6.07;;;3.25;;
64938;SDS011;51453;47.738;7.420;2022-11-20T09:34:08;6.47;;;3.33;;
64938;SDS011;51453;47.738;7.420;2022-11-20T09:36:34;3.90;;;2.92;;
64938;SDS011;51453;47.738;7.420;2022-11-20T09:39:00;9.73;;;2.95;;
64938;SDS011;51453;47.738;7.420;2022-11-20T09:46:55;4.47;;;3.07;;
64938;SDS011;51453;47.738;7.420;2022-11-20T09:55:47;7.03;;;3.13;;
64938;SDS011;51453;47.738;7.420;2022-11-20T09:58:15;9.55;;;3.20;;
64938;SDS011;51453;47.738;7.420;2022-11-20T10:00:55;5.30;;;2.95;;
64938;SDS011;51453;47.738;7.420;2022-11-20T10:03:39;6.55;;;2.47;;
64938;SDS011;51453;47.738;7.420;2022-11-20T10:06:08;5.13;;;2.35;;
64938;SDS011;51453;47.738;7.420;2022-11-20T10:08:43;5.22;;;2.03;;
64938;SDS011;51453;47.738;7.420;2022-11-20T10:21:39;5.43;;;1.80;;
64938;SDS011;51453;47.738;7.420;2022-11-20T10:29:33;4.88;;;1.50;;
64938;SDS011;51453;47.738;7.420;2022-11-20T10:32:04;3.78;;;1.55;;
64938;SDS011;51453;47.738;7.420;2022-11-20T10:37:23;3.28;;;1.45;;
64938;SDS011;51453;47.738;7.420;2022-11-20T10:42:31;5.47;;;1.70;;
64938;SDS011;51453;47.738;7.420;2022-11-20T10:47:56;3.50;;;1.30;;
64938;SDS011;51453;47.738;7.420;2022-11-20T10:53:47;3.75;;;1.33;;
64938;SDS011;51453;47.738;7.420;2022-11-20T10:56:04;4.93;;;1.77;;
64938;SDS011;51453;47.738;7.420;2022-11-20T11:01:28;3.17;;;1.20;;
64938;SDS011;51453;47.738;7.420;2022-11-20T11:03:54;3.92;;;2.38;;
64938;SDS011;51453;47.738;7.420;2022-11-20T11:06:26;2.88;;;1.52;;
64938;SDS011;51453;47.738;7.420;2022-11-20T11:09:01;2.63;;;1.45;;
64938;SDS011;51453;47.738;7.420;2022-11-20T11:11:55;3.33;;;1.55;;
64938;SDS011;51453;47.738;7.420;2022-11-20T11:14:21;5.10;;;1.92;;
64938;SDS011;51453;47.738;7.420;2022-11-20T11:19:16;7.13;;;3.00;;
64938;SDS011;51453;47.738;7.420;2022-11-20T11:21:48;3.97;;;2.47;;
64938;SDS011;51453;47.738;7.420;2022-11-20T11:24:21;2.08;;;1.35;;
64938;SDS011;51453;47.738;7.420;2022-11-20T11:27:10;4.57;;;2.00;;
64938;SDS011;51453;47.738;7.420;2022-11-20T11:29:37;1.92;;;1.23;;
64938;SDS011;51453;47.738;7.420;2022-11-20T11:32:07;6.38;;;1.90;;
64938;SDS011;51453;47.738;7.420;2022-11-20T11:34:33;2.42;;;1.30;;
64938;SDS011;51453;47.738;7.420;2022-11-20T11:36:59;3.47;;;1.40;;
64938;SDS011;51453;47.738;7.420;2022-11-20T11:39:28;3.33;;;1.55;;
64938;SDS011;51453;47.738;7.420;2022-11-20T11:41:55;5.20;;;1.65;;
64938;SDS011;51453;47.738;7.420;2022-11-20T11:44:23;2.53;;;1.15;;
64938;SDS011;51453;47.738;7.420;2022-11-20T11:47:21;2.38;;;1.10;;
64938;SDS011;51453;47.738;7.420;2022-11-20T11:49:47;3.35;;;1.38;;
64938;SDS011;51453;47.738;7.420;2022-11-20T11:52:14;1.27;;;1.08;;
64938;SDS011;51453;47.738;7.420;2022-11-20T12:00:12;2.40;;;0.68;;
64938;SDS011;51453;47.738;7.420;2022-11-20T12:15:44;5.60;;;0.82;;
64938;SDS011;51453;47.738;7.420;2022-11-20T12:18:14;3.92;;;1.35;;
64938;SDS011;51453;47.738;7.420;2022-11-20T12:20:45;5.30;;;0.90;;
64938;SDS011;51453;47.738;7.420;2022-11-20T12:23:26;2.28;;;0.57;;
64938;SDS011;51453;47.738;7.420;2022-11-20T12:26:00;3.25;;;0.60;;
64938;SDS011;51453;47.738;7.420;2022-11-20T12:37:07;4.45;;;1.40;;
64938;SDS011;51453;47.738;7.420;2022-11-20T12:39:42;5.03;;;1.10;;
64938;SDS011;51453;47.738;7.420;2022-11-20T12:47:58;3.05;;;1.20;;
64938;SDS011;51453;47.738;7.420;2022-11-20T12:53:04;4.03;;;2.05;;
64938;SDS011;51453;47.738;7.420;2022-11-20T13:03:33;2.58;;;1.00;;
64938;SDS011;51453;47.738;7.420;2022-11-20T13:08:40;2.67;;;0.80;;
64938;SDS011;51453;47.738;7.420;2022-11-20T13:19:02;4.57;;;1.30;;
64938;SDS011;51453;47.738;7.420;2022-11-20T13:21:36;3.80;;;1.58;;
64938;SDS011;51453;47.738;7.420;2022-11-20T13:24:19;5.00;;;1.08;;
64938;SDS011;51453;47.738;7.420;2022-11-20T13:26:48;5.55;;;1.30;;
64938;SDS011;51453;47.738;7.420;2022-11-20T13:29:33;2.80;;;1.02;;
64938;SDS011;51453;47.738;7.420;2022-11-20T13:34:38;4.93;;;1.38;;
64938;SDS011;51453;47.738;7.420;2022-11-20T13:37:04;3.25;;;1.05;;
64938;SDS011;51453;47.738;7.420;2022-11-20T13:39:34;2.42;;;1.30;;
64938;SDS011;51453;47.738;7.420;2022-11-20T13:44:46;5.65;;;1.67;;
64938;SDS011;51453;47.738;7.420;2022-11-20T13:47:25;3.90;;;1.67;;
64938;SDS011;51453;47.738;7.420;2022-11-20T13:49:52;5.57;;;1.35;;
64938;SDS011;51453;47.738;7.420;2022-11-20T14:00:32;3.08;;;1.00;;
64938;SDS011;51453;47.738;7.420;2022-11-20T14:05:29;4.15;;;1.17;;
64938;SDS011;51453;47.738;7.420;2022-11-20T14:08:00;4.35;;;1.33;;
64938;SDS011;51453;47.738;7.420;2022-11-20T14:10:30;9.05;;;3.25;;
64938;SDS011;51453;47.738;7.420;2022-11-20T14:12:56;3.40;;;1.55;;
64938;SDS011;51453;47.738;7.420;2022-11-20T14:15:31;4.13;;;1.92;;
64938;SDS011;51453;47.738;7.420;2022-11-20T14:17:58;4.43;;;1.63;;
64938;SDS011;51453;47.738;7.420;2022-11-20T14:20:28;3.75;;;2.40;;
64938;SDS011;51453;47.738;7.420;2022-11-20T14:22:56;4.13;;;1.70;;
64938;SDS011;51453;47.738;7.420;2022-11-20T14:25:23;4.03;;;1.70;;
64938;SDS011;51453;47.738;7.420;2022-11-20T14:27:56;5.13;;;1.70;;
64938;SDS011;51453;47.738;7.420;2022-11-20T14:30:25;7.15;;;2.22;;
64938;SDS011;51453;47.738;7.420;2022-11-20T14:33:01;5.93;;;2.05;;
64938;SDS011;51453;47.738;7.420;2022-11-20T14:35:34;4.05;;;1.50;;
64938;SDS011;51453;47.738;7.420;2022-11-20T14:38:02;6.53;;;2.13;;
64938;SDS011;51453;47.738;7.420;2022-11-20T14:40:29;4.63;;;2.03;;
64938;SDS011;51453;47.738;7.420;2022-11-20T14:42:57;7.30;;;3.83;;
64938;SDS011;51453;47.738;7.420;2022-11-20T14:45:24;5.28;;;3.10;;
64938;SDS011;51453;47.738;7.420;2022-11-20T14:47:54;3.85;;;1.60;;
64938;SDS011;51453;47.738;7.420;2022-11-20T14:55:53;2.90;;;1.00;;
64938;SDS011;51453;47.738;7.420;2022-11-20T14:58:22;1.00;;;0.87;;
64938;SDS011;51453;47.738;7.420;2022-11-20T15:00:54;1.55;;;1.13;;
64938;SDS011;51453;47.738;7.420;2022-11-20T15:03:21;2.63;;;1.05;;
64938;SDS011;51453;47.738;7.420;2022-11-20T15:05:48;2.25;;;0.98;;
64938;SDS011;51453;47.738;7.420;2022-11-20T15:08:16;2.67;;;1.40;;
64938;SDS011;51453;47.738;7.420;2022-11-20T15:10:45;1.73;;;0.93;;
64938;SDS011;51453;47.738;7.420;2022-11-20T15:13:25;3.00;;;1.00;;
64938;SDS011;51453;47.738;7.420;2022-11-20T15:15:57;2.83;;;1.88;;
64938;SDS011;51453;47.738;7.420;2022-11-20T15:20:54;4.22;;;1.90;;
64938;SDS011;51453;47.738;7.420;2022-11-20T15:23:21;5.68;;;2.90;;
64938;SDS011;51453;47.738;7.420;2022-11-20T15:25:47;6.80;;;3.20;;
64938;SDS011;51453;47.738;7.420;2022-11-20T15:28:16;3.45;;;2.40;;
64938;SDS011;51453;47.738;7.420;2022-11-20T15:30:52;3.20;;;1.70;;
64938;SDS011;51453;47.738;7.420;2022-11-20T15:33:18;5.50;;;2.45;;
64938;SDS011;51453;47.738;7.420;2022-11-20T15:35:43;4.30;;;1.48;;
64938;SDS011;51453;47.738;7.420;2022-11-20T15:38:09;3.60;;;1.20;;
64938;SDS011;51453;47.738;7.420;2022-11-20T15:40:35;2.22;;;1.30;;
64938;SDS011;51453;47.738;7.420;2022-11-20T15:43:01;1.77;;;1.17;;
64938;SDS011;51453;47.738;7.420;2022-11-20T15:47:59;1.48;;;1.05;;
64938;SDS011;51453;47.738;7.420;2022-11-20T15:50:41;1.77;;;1.10;;
64938;SDS011;51453;47.738;7.420;2022-11-20T15:53:21;2.35;;;1.40;;
64938;SDS011;51453;47.738;7.420;2022-11-20T15:55:47;4.45;;;1.90;;
64938;SDS011;51453;47.738;7.420;2022-11-20T15:58:13;4.60;;;1.70;;
64938;SDS011;51453;47.738;7.420;2022-11-20T16:00:39;2.28;;;1.63;;
64938;SDS011;51453;47.738;7.420;2022-11-20T16:03:04;4.32;;;1.45;;
64938;SDS011;51453;47.738;7.420;2022-11-20T16:05:30;3.47;;;1.40;;
64938;SDS011;51453;47.738;7.420;2022-11-20T16:07:56;3.17;;;1.48;;
64938;SDS011;51453;47.738;7.420;2022-11-20T16:10:22;11.70;;;5.97;;
64938;SDS011;51453;47.738;7.420;2022-11-20T16:12:48;30.52;;;13.60;;
64938;SDS011;51453;47.738;7.420;2022-11-20T16:15:32;26.80;;;12.95;;
64938;SDS011;51453;47.738;7.420;2022-11-20T16:18:11;23.83;;;10.00;;
64938;SDS011;51453;47.738;7.420;2022-11-20T16:20:42;27.52;;;12.15;;
64938;SDS011;51453;47.738;7.420;2022-11-20T16:23:08;8.63;;;4.90;;
64938;SDS011;51453;47.738;7.420;2022-11-20T16:25:33;6.28;;;3.58;;
64938;SDS011;51453;47.738;7.420;2022-11-20T16:27:59;19.70;;;8.05;;
64938;SDS011;51453;47.738;7.420;2022-11-20T16:30:25;30.83;;;16.33;;
64938;SDS011;51453;47.738;7.420;2022-11-20T16:32:51;11.70;;;6.28;;
64938;SDS011;51453;47.738;7.420;2022-11-20T16:35:17;27.48;;;15.90;;
64938;SDS011;51453;47.738;7.420;2022-11-20T16:37:42;6.70;;;4.85;;
64938;SDS011;51453;47.738;7.420;2022-11-20T16:40:09;10.05;;;6.55;;
64938;SDS011;51453;47.738;7.420;2022-11-20T16:42:36;10.63;;;6.75;;
64938;SDS011;51453;47.738;7.420;2022-11-20T16:45:02;9.93;;;6.57;;
64938;SDS011;51453;47.738;7.420;2022-11-20T16:47:32;4.97;;;3.17;;
64938;SDS011;51453;47.738;7.420;2022-11-20T16:49:58;6.22;;;3.40;;
64938;SDS011;51453;47.738;7.420;2022-11-20T16:52:23;8.23;;;4.70;;
64938;SDS011;51453;47.738;7.420;2022-11-20T16:54:49;7.55;;;4.85;;
64938;SDS011;51453;47.738;7.420;2022-11-20T16:57:15;4.22;;;2.65;;
64938;SDS011;51453;47.738;7.420;2022-11-20T16:59:41;8.05;;;4.13;;
64938;SDS011;51453;47.738;7.420;2022-11-20T17:02:08;7.13;;;3.72;;
64938;SDS011;51453;47.738;7.420;2022-11-20T17:04:34;11.10;;;5.38;;
64938;SDS011;51453;47.738;7.420;2022-11-20T17:07:00;6.60;;;3.88;;
64938;SDS011;51453;47.738;7.420;2022-11-20T17:09:26;6.80;;;3.55;;
64938;SDS011;51453;47.738;7.420;2022-11-20T17:11:52;10.45;;;6.30;;